createdAt,value
2019-05-07T00:01:55.249Z,6.90
2019-05-07T00:04:25.085Z,6.70
2019-05-07T00:06:55.864Z,6.90
2019-05-07T00:09:27.657Z,6.80
2019-05-07T00:11:58.335Z,6.80
2019-05-07T00:14:29.145Z,6.60
2019-05-07T00:16:59.726Z,6.50
2019-05-07T00:19:32.448Z,6.50
2019-05-07T00:22:04.734Z,6.50
2019-05-07T00:24:37.941Z,6.70
2019-05-07T00:27:10.133Z,6.60
2019-05-07T00:29:42.846Z,7.00
2019-05-07T00:32:14.073Z,6.50
2019-05-07T00:34:50.580Z,6.70
2019-05-07T00:37:32.263Z,6.70
2019-05-07T00:40:24.005Z,6.70
2019-05-07T00:43:19.108Z,6.40
2019-05-07T00:46:02.133Z,6.20
2019-05-07T00:48:32.894Z,6.30
2019-05-07T00:51:22.637Z,6.10
2019-05-07T00:53:53.408Z,6.10
2019-05-07T00:56:24.091Z,6.30
2019-05-07T00:58:54.601Z,5.60
2019-05-07T01:01:24.958Z,5.90
2019-05-07T01:03:55.659Z,5.60
2019-05-07T01:06:26.572Z,5.90
2019-05-07T01:08:57.229Z,5.60
2019-05-07T01:11:33.517Z,6.00
2019-05-07T01:14:06.122Z,5.60
2019-05-07T01:16:38.810Z,5.60
2019-05-07T01:19:09.350Z,5.60
2019-05-07T01:21:40.288Z,5.50
2019-05-07T01:24:12.330Z,5.40
2019-05-07T01:26:43.105Z,5.40
2019-05-07T01:29:13.899Z,5.30
2019-05-07T01:31:52.572Z,5.10
2019-05-07T01:34:32.315Z,5.30
2019-05-07T01:37:02.935Z,5.00
2019-05-07T01:39:34.843Z,4.90
2019-05-07T01:42:05.421Z,4.90
2019-05-07T01:44:37.937Z,5.00
2019-05-07T01:47:08.810Z,4.90
2019-05-07T01:49:42.191Z,5.00
2019-05-07T01:52:13.360Z,5.00
2019-05-07T01:54:47.631Z,5.20
2019-05-07T01:57:18.418Z,5.00
2019-05-07T01:59:52.555Z,4.80
2019-05-07T02:02:42.535Z,5.10
2019-05-07T02:05:27.921Z,5.00
2019-05-07T02:08:02.931Z,5.00
2019-05-07T02:10:52.303Z,4.80
2019-05-07T02:13:23.382Z,5.00
2019-05-07T02:16:00.816Z,5.00
2019-05-07T02:18:28.670Z,4.80
2019-05-07T02:20:59.450Z,5.00
2019-05-07T02:23:29.986Z,5.00
2019-05-07T02:26:03.373Z,5.00
2019-05-07T02:28:33.930Z,5.00
2019-05-07T02:31:04.753Z,5.10
2019-05-07T02:33:35.340Z,5.10
2019-05-07T02:36:05.795Z,5.00
2019-05-07T02:38:45.794Z,4.90
2019-05-07T02:41:23.629Z,4.80
2019-05-07T02:43:54.026Z,4.40
2019-05-07T02:46:43.967Z,4.50
2019-05-07T02:49:38.909Z,4.60
2019-05-07T02:52:28.854Z,4.50
2019-05-07T02:55:07.103Z,4.30
2019-05-07T02:57:37.606Z,4.40
2019-05-07T03:00:14.069Z,4.80
2019-05-07T03:02:43.697Z,4.70
2019-05-07T03:05:14.733Z,4.80
2019-05-07T03:07:45.282Z,4.70
2019-05-07T03:10:16.173Z,4.80
2019-05-07T03:12:46.852Z,4.80
2019-05-07T03:15:18.050Z,4.40
2019-05-07T03:17:49.910Z,4.40
2019-05-07T03:20:26.061Z,4.50
2019-05-07T03:22:57.495Z,4.60
2019-05-07T03:25:34.003Z,4.40
2019-05-07T03:28:06.103Z,4.50
2019-05-07T03:30:46.622Z,4.30
2019-05-07T03:33:36.140Z,4.50
2019-05-07T03:36:07.237Z,4.40
2019-05-07T03:38:36.343Z,4.50
2019-05-07T03:41:06.999Z,4.30
2019-05-07T03:43:37.517Z,4.40
2019-05-07T03:46:14.293Z,4.50
2019-05-07T03:48:46.637Z,4.50
2019-05-07T03:51:17.603Z,4.50
2019-05-07T03:53:48.172Z,4.30
2019-05-07T03:56:18.641Z,4.40
2019-05-07T03:58:49.116Z,4.50
2019-05-07T04:01:19.844Z,4.40
2019-05-07T04:03:53.090Z,4.70
2019-05-07T04:06:23.521Z,4.50
2019-05-07T04:08:55.938Z,4.20
2019-05-07T04:11:26.766Z,4.50
2019-05-07T04:13:58.000Z,4.30
2019-05-07T04:16:28.585Z,4.20
2019-05-07T04:18:59.492Z,4.50
2019-05-07T04:21:30.096Z,4.40
2019-05-07T04:24:18.746Z,4.50
2019-05-07T04:26:56.133Z,4.30
2019-05-07T04:29:26.563Z,4.70
2019-05-07T04:31:58.522Z,4.50
2019-05-07T04:34:46.605Z,4.80
2019-05-07T04:37:18.867Z,4.80
2019-05-07T04:39:55.836Z,4.80
2019-05-07T04:42:26.694Z,5.00
2019-05-07T04:44:58.916Z,5.10
2019-05-07T04:47:38.678Z,5.00
2019-05-07T04:50:04.120Z,4.90
2019-05-07T04:52:36.506Z,5.10
2019-05-07T04:55:08.057Z,5.30
2019-05-07T04:57:39.462Z,5.30
2019-05-07T05:00:13.486Z,5.30
2019-05-07T05:03:05.728Z,5.40
2019-05-07T05:05:37.733Z,5.20
2019-05-07T05:08:08.132Z,5.30
2019-05-07T05:10:38.756Z,5.40
2019-05-07T05:13:12.863Z,5.30
2019-05-07T05:15:43.535Z,5.30
2019-05-07T05:18:14.259Z,5.30
2019-05-07T05:20:56.123Z,5.60
2019-05-07T05:23:47.291Z,5.70
2019-05-07T05:26:18.038Z,5.60
2019-05-07T05:28:52.411Z,6.00
2019-05-07T05:31:22.452Z,6.00
2019-05-07T05:33:54.295Z,5.90
2019-05-07T05:36:25.190Z,5.90
2019-05-07T05:38:56.176Z,6.00
2019-05-07T05:41:28.472Z,5.90
2019-05-07T05:44:12.345Z,6.20
2019-05-07T05:46:42.949Z,6.10
2019-05-07T05:49:13.443Z,6.10
2019-05-07T05:51:52.620Z,6.20
2019-05-07T05:54:42.691Z,6.50
2019-05-07T05:57:20.200Z,6.50
2019-05-07T06:00:02.131Z,6.60
2019-05-07T06:02:53.131Z,6.70
2019-05-07T06:05:34.361Z,6.80
2019-05-07T06:08:26.479Z,6.80
2019-05-07T06:11:22.004Z,7.10
2019-05-07T06:14:10.116Z,7.50
2019-05-07T06:16:47.846Z,7.30
2019-05-07T06:19:27.274Z,7.80
2019-05-07T06:22:09.474Z,7.70
2019-05-07T06:24:52.024Z,7.80
2019-05-07T06:27:23.621Z,8.10
2019-05-07T06:29:54.460Z,7.90
2019-05-07T06:32:26.743Z,8.10
2019-05-07T06:34:57.453Z,7.90
2019-05-07T06:37:28.177Z,8.40
2019-05-07T06:40:29.299Z,8.40
2019-05-07T06:43:21.867Z,8.40
2019-05-07T06:45:54.939Z,8.40
2019-05-07T06:48:37.839Z,8.40
2019-05-07T06:50:57.990Z,8.50
2019-05-07T06:53:30.199Z,8.70
2019-05-07T06:56:03.010Z,8.80
2019-05-07T06:58:45.196Z,8.90
2019-05-07T07:01:53.265Z,8.80
2019-05-07T07:04:29.984Z,8.80
2019-05-07T07:07:36.532Z,8.90
2019-05-07T07:10:42.645Z,8.90
2019-05-07T07:13:13.621Z,9.30
2019-05-07T07:15:44.319Z,9.30
2019-05-07T07:18:15.084Z,9.40
2019-05-07T07:20:48.564Z,9.70
2019-05-07T07:23:19.133Z,9.70
2019-05-07T07:25:52.227Z,9.50
2019-05-07T07:28:22.861Z,9.80
2019-05-07T07:31:06.451Z,10.10
2019-05-07T07:33:39.580Z,10.00
2019-05-07T07:36:12.004Z,10.20
2019-05-07T07:38:42.534Z,10.30
2019-05-07T07:41:32.816Z,10.30
2019-05-07T07:44:04.638Z,10.00
2019-05-07T07:46:35.468Z,9.90
2019-05-07T07:49:11.021Z,10.10
2019-05-07T07:51:42.182Z,10.10
2019-05-07T07:54:12.606Z,10.30
2019-05-07T07:57:02.306Z,10.00
2019-05-07T07:59:57.709Z,10.20
2019-05-07T08:02:39.377Z,10.10
2019-05-07T08:05:12.536Z,10.10
2019-05-07T08:07:43.296Z,10.10
2019-05-07T08:10:14.777Z,10.00
2019-05-07T08:12:45.594Z,9.90
2019-05-07T08:15:20.815Z,10.20
2019-05-07T08:17:49.020Z,9.90
2019-05-07T08:20:22.193Z,10.30
2019-05-07T08:22:52.772Z,9.90
2019-05-07T08:25:43.028Z,9.90
2019-05-07T08:28:13.866Z,10.00
2019-05-07T08:30:48.266Z,10.00
2019-05-07T08:33:23.965Z,10.10
2019-05-07T08:36:15.064Z,10.40
2019-05-07T08:38:52.860Z,10.30
2019-05-07T08:41:25.839Z,10.50
2019-05-07T08:44:15.869Z,10.40
2019-05-07T08:47:04.515Z,10.70
2019-05-07T08:49:39.882Z,10.60
2019-05-07T08:52:11.983Z,10.80
2019-05-07T08:54:44.325Z,10.60
2019-05-07T08:57:15.296Z,10.70
2019-05-07T08:59:57.598Z,11.00
2019-05-07T09:02:18.048Z,11.00
2019-05-07T09:04:48.641Z,11.10
2019-05-07T09:07:19.185Z,11.40
2019-05-07T09:09:52.081Z,11.30
2019-05-07T09:12:22.954Z,11.50
2019-05-07T09:14:53.916Z,11.00
2019-05-07T09:17:24.461Z,11.10
2019-05-07T09:19:56.676Z,11.50
2019-05-07T09:22:27.197Z,11.20
2019-05-07T09:24:58.562Z,11.50
2019-05-07T09:27:48.091Z,11.30
2019-05-07T09:30:48.169Z,11.70
2019-05-07T09:33:45.668Z,11.30
2019-05-07T09:36:24.754Z,11.70
2019-05-07T09:38:59.057Z,11.90
2019-05-07T09:41:27.578Z,11.80
2019-05-07T09:43:59.183Z,11.90
2019-05-07T09:46:32.340Z,12.10
2019-05-07T09:49:03.103Z,12.10
2019-05-07T09:51:33.673Z,12.00
2019-05-07T09:54:05.963Z,12.10
2019-05-07T09:56:36.413Z,11.70
2019-05-07T09:59:07.343Z,11.70
2019-05-07T10:01:38.062Z,11.70
2019-05-07T10:04:08.656Z,11.70
2019-05-07T10:06:39.658Z,11.70
2019-05-07T10:09:12.059Z,11.90
2019-05-07T10:11:49.599Z,11.70
2019-05-07T10:14:22.284Z,11.80
2019-05-07T10:16:59.625Z,11.80
2019-05-07T10:19:42.141Z,12.30
2019-05-07T10:22:12.721Z,12.40
2019-05-07T10:24:43.480Z,12.30
2019-05-07T10:27:14.973Z,12.40
2019-05-07T10:29:46.839Z,12.70
2019-05-07T10:32:17.566Z,12.70
2019-05-07T10:34:48.378Z,12.90
2019-05-07T10:37:19.691Z,12.60
2019-05-07T10:39:51.982Z,12.90
2019-05-07T10:42:23.832Z,13.00
2019-05-07T10:45:22.121Z,12.90
2019-05-07T10:48:02.573Z,12.90
2019-05-07T10:50:38.909Z,12.80
2019-05-07T10:53:05.274Z,12.80
2019-05-07T10:55:35.846Z,12.90
2019-05-07T10:58:06.436Z,12.60
2019-05-07T11:00:38.761Z,12.70
2019-05-07T11:03:12.654Z,12.80
2019-05-07T11:05:43.553Z,12.80
2019-05-07T11:08:15.209Z,12.90
2019-05-07T11:10:46.765Z,13.00
2019-05-07T11:13:17.207Z,13.10
2019-05-07T11:15:51.706Z,13.20
2019-05-07T11:18:32.185Z,13.30
2019-05-07T11:21:03.183Z,13.10
2019-05-07T11:23:33.855Z,13.30
2019-05-07T11:26:04.570Z,13.20
2019-05-07T11:28:35.582Z,13.50
2019-05-07T11:31:08.626Z,13.40
2019-05-07T11:33:39.192Z,13.40
2019-05-07T11:36:11.082Z,13.30
2019-05-07T11:38:44.870Z,13.00
2019-05-07T11:41:18.345Z,13.30
2019-05-07T11:44:03.190Z,13.50
2019-05-07T11:46:46.413Z,13.70
2019-05-07T11:49:38.830Z,13.30
2019-05-07T11:52:15.094Z,13.10
2019-05-07T11:54:46.041Z,13.10
2019-05-07T11:57:16.565Z,13.00
2019-05-07T11:59:47.438Z,13.20
2019-05-07T12:02:18.003Z,13.20
2019-05-07T12:04:48.860Z,13.40
2019-05-07T12:07:19.730Z,13.20
2019-05-07T12:09:52.672Z,13.30
2019-05-07T12:12:23.562Z,13.90
2019-05-07T12:14:54.039Z,14.50
2019-05-07T12:17:24.552Z,15.10
2019-05-07T12:19:54.936Z,15.20
2019-05-07T12:22:44.366Z,14.90
2019-05-07T12:25:16.740Z,15.40
2019-05-07T12:27:50.058Z,15.00
2019-05-07T12:30:42.914Z,15.30
2019-05-07T12:33:42.794Z,15.60
2019-05-07T12:36:14.446Z,15.20
2019-05-07T12:38:45.239Z,15.20
2019-05-07T12:41:33.760Z,15.00
2019-05-07T12:44:07.291Z,14.80
2019-05-07T12:46:38.346Z,15.10
2019-05-07T12:49:08.862Z,14.90
2019-05-07T12:51:58.377Z,15.10
2019-05-07T12:54:42.141Z,15.10
2019-05-07T12:57:12.909Z,14.80
2019-05-07T12:59:43.673Z,14.80
2019-05-07T13:02:37.193Z,14.70
2019-05-07T13:05:02.713Z,14.30
2019-05-07T13:08:01.876Z,14.60
2019-05-07T13:10:34.070Z,14.90
2019-05-07T13:13:04.902Z,14.50
2019-05-07T13:15:37.129Z,14.60
2019-05-07T13:18:07.674Z,14.80
2019-05-07T13:20:38.129Z,15.10
2019-05-07T13:23:08.737Z,15.10
2019-05-07T13:25:39.704Z,15.20
2019-05-07T13:28:11.858Z,15.00
2019-05-07T13:30:43.917Z,14.60
2019-05-07T13:33:17.055Z,14.60
2019-05-07T13:35:52.064Z,14.50
2019-05-07T13:38:33.608Z,14.60
2019-05-07T13:41:22.677Z,15.00
2019-05-07T13:44:19.300Z,15.00
2019-05-07T13:46:53.002Z,14.80
2019-05-07T13:49:26.135Z,14.90
2019-05-07T13:52:03.558Z,14.70
2019-05-07T13:54:29.799Z,15.30
2019-05-07T13:57:01.879Z,15.00
2019-05-07T13:59:33.385Z,15.50
2019-05-07T14:02:08.325Z,15.50
2019-05-07T14:04:41.944Z,15.60
2019-05-07T14:07:13.533Z,16.30
2019-05-07T14:09:44.076Z,16.40
2019-05-07T14:12:14.796Z,16.50
2019-05-07T14:14:45.242Z,16.70
2019-05-07T14:17:16.010Z,16.50
2019-05-07T14:19:48.220Z,16.60
2019-05-07T14:22:19.727Z,16.90
2019-05-07T14:24:52.712Z,17.10
2019-05-07T14:27:23.039Z,17.20
2019-05-07T14:29:53.423Z,17.30
2019-05-07T14:32:47.597Z,17.40
2019-05-07T14:35:53.878Z,17.10
2019-05-07T14:38:32.156Z,16.80
2019-05-07T14:41:03.020Z,16.20
2019-05-07T14:43:45.436Z,16.40
2019-05-07T14:46:15.835Z,16.60
2019-05-07T14:48:46.877Z,16.70
2019-05-07T14:51:17.714Z,16.70
2019-05-07T14:53:48.301Z,16.70
2019-05-07T14:56:18.824Z,16.70
2019-05-07T14:58:51.693Z,17.10
2019-05-07T15:01:23.466Z,16.90
2019-05-07T15:03:54.282Z,16.90
2019-05-07T15:06:27.591Z,16.60
2019-05-07T15:09:00.112Z,16.60
2019-05-07T15:11:31.774Z,16.30
2019-05-07T15:14:03.089Z,16.40
2019-05-07T15:16:34.115Z,16.30
2019-05-07T15:19:05.205Z,16.70
2019-05-07T15:21:35.586Z,16.80
2019-05-07T15:24:06.887Z,16.50
2019-05-07T15:26:38.953Z,16.60
2019-05-07T15:29:13.750Z,16.30
2019-05-07T15:32:00.124Z,16.40
2019-05-07T15:34:32.750Z,16.20
2019-05-07T15:37:03.728Z,15.70
2019-05-07T15:39:34.734Z,15.70
2019-05-07T15:42:05.711Z,15.70
2019-05-07T15:44:36.332Z,15.70
2019-05-07T15:47:12.579Z,15.70
2019-05-07T15:49:43.161Z,16.20
2019-05-07T15:52:19.161Z,16.20
2019-05-07T15:54:49.765Z,15.70
2019-05-07T15:57:25.675Z,15.70
2019-05-07T16:00:06.484Z,16.10
2019-05-07T16:02:45.126Z,16.30
2019-05-07T16:05:15.282Z,16.20
2019-05-07T16:07:48.532Z,16.30
2019-05-07T16:10:19.411Z,15.90
2019-05-07T16:12:53.072Z,15.90
2019-05-07T16:15:24.048Z,15.90
2019-05-07T16:18:02.653Z,15.30
2019-05-07T16:20:32.844Z,15.50
2019-05-07T16:23:14.348Z,15.20
2019-05-07T16:25:35.639Z,15.20
2019-05-07T16:28:07.150Z,15.20
2019-05-07T16:30:37.813Z,15.00
2019-05-07T16:33:09.360Z,14.80
2019-05-07T16:35:39.807Z,14.60
2019-05-07T16:38:14.470Z,14.70
2019-05-07T16:40:43.732Z,14.50
2019-05-07T16:43:14.133Z,14.50
2019-05-07T16:45:44.670Z,14.60
2019-05-07T16:48:15.132Z,14.50
2019-05-07T16:50:46.224Z,14.40
2019-05-07T16:53:27.480Z,14.50
2019-05-07T16:55:49.057Z,14.40
2019-05-07T16:58:29.416Z,14.70
2019-05-07T17:01:03.640Z,14.60
2019-05-07T17:03:47.480Z,14.70
2019-05-07T17:06:17.934Z,14.50
2019-05-07T17:08:55.934Z,14.70
2019-05-07T17:11:26.820Z,14.60
2019-05-07T17:13:57.314Z,14.50
2019-05-07T17:16:27.926Z,14.70
2019-05-07T17:18:58.329Z,14.30
2019-05-07T17:21:29.084Z,14.20
2019-05-07T17:23:59.582Z,14.30
2019-05-07T17:26:30.514Z,14.50
2019-05-07T17:29:02.601Z,14.30
2019-05-07T17:31:34.081Z,13.80
2019-05-07T17:34:06.612Z,14.10
2019-05-07T17:36:37.538Z,14.20
2019-05-07T17:39:08.817Z,14.00
2019-05-07T17:41:42.951Z,13.90
2019-05-07T17:44:13.431Z,13.70
2019-05-07T17:46:46.159Z,13.70
2019-05-07T17:49:18.272Z,13.50
2019-05-07T17:51:52.595Z,13.30
2019-05-07T17:54:25.665Z,13.30
2019-05-07T17:56:55.833Z,13.20
2019-05-07T17:59:26.484Z,13.10
2019-05-07T18:02:16.934Z,13.20
2019-05-07T18:04:52.232Z,12.90
2019-05-07T18:07:21.419Z,13.10
2019-05-07T18:09:51.927Z,12.80
2019-05-07T18:12:23.756Z,12.50
2019-05-07T18:14:54.647Z,12.90
2019-05-07T18:17:42.033Z,12.50
2019-05-07T18:20:13.730Z,12.40
2019-05-07T18:22:45.873Z,12.40
2019-05-07T18:25:16.499Z,12.40
2019-05-07T18:27:46.904Z,12.40
2019-05-07T18:30:17.635Z,12.40
2019-05-07T18:32:53.522Z,12.50
2019-05-07T18:35:24.497Z,12.10
2019-05-07T18:37:55.294Z,12.00
2019-05-07T18:40:25.967Z,12.30
2019-05-07T18:42:58.045Z,12.20
2019-05-07T18:45:29.259Z,12.10
2019-05-07T18:48:02.289Z,12.10
2019-05-07T18:50:33.268Z,11.90
2019-05-07T18:53:04.003Z,12.10
2019-05-07T18:55:35.597Z,11.80
2019-05-07T18:58:06.720Z,11.80
2019-05-07T19:00:42.432Z,11.70
2019-05-07T19:03:12.978Z,11.40
2019-05-07T19:05:47.827Z,11.50
2019-05-07T19:08:18.536Z,11.30
2019-05-07T19:10:52.213Z,11.70
2019-05-07T19:13:23.964Z,11.40
2019-05-07T19:15:56.614Z,11.10
2019-05-07T19:18:29.255Z,11.20
2019-05-07T19:21:01.526Z,11.00
2019-05-07T19:23:33.864Z,11.10
2019-05-07T19:26:04.994Z,10.80
2019-05-07T19:28:35.954Z,10.80
2019-05-07T19:31:08.054Z,10.60
2019-05-07T19:33:41.951Z,10.90
2019-05-07T19:36:12.545Z,10.90
2019-05-07T19:38:43.369Z,10.80
2019-05-07T19:41:14.000Z,10.80
2019-05-07T19:43:44.891Z,10.70
2019-05-07T19:46:17.167Z,10.70
2019-05-07T19:48:49.026Z,10.70
2019-05-07T19:51:19.886Z,10.70
2019-05-07T19:53:52.601Z,10.40
2019-05-07T19:56:24.544Z,10.40
2019-05-07T19:58:55.391Z,10.40
2019-05-07T20:01:35.539Z,10.30
2019-05-07T20:04:06.065Z,10.30
2019-05-07T20:06:36.606Z,10.30
2019-05-07T20:09:14.762Z,10.00
2019-05-07T20:11:46.360Z,9.90
2019-05-07T20:14:18.278Z,9.90
2019-05-07T20:16:49.166Z,10.10
2019-05-07T20:19:20.102Z,9.90
2019-05-07T20:21:52.357Z,9.90
2019-05-07T20:24:23.333Z,9.90
2019-05-07T20:26:54.787Z,10.20
2019-05-07T20:29:25.314Z,10.10
2019-05-07T20:31:56.118Z,10.00
2019-05-07T20:34:26.668Z,9.80
2019-05-07T20:36:58.086Z,9.80
2019-05-07T20:39:32.105Z,9.70
2019-05-07T20:42:03.016Z,9.80
2019-05-07T20:44:33.594Z,9.90
2019-05-07T20:47:04.145Z,9.60
2019-05-07T20:49:34.545Z,9.40
2019-05-07T20:52:05.203Z,9.70
2019-05-07T20:54:57.105Z,9.60
2019-05-07T20:57:32.006Z,9.30
2019-05-07T21:00:02.960Z,9.30
2019-05-07T21:02:44.513Z,9.30
2019-05-07T21:05:06.344Z,9.30
2019-05-07T21:07:36.948Z,9.50
2019-05-07T21:10:08.010Z,9.40
2019-05-07T21:12:38.621Z,9.10
2019-05-07T21:15:09.175Z,9.20
2019-05-07T21:17:39.906Z,9.50
2019-05-07T21:20:12.156Z,8.90
2019-05-07T21:22:43.977Z,8.90
2019-05-07T21:25:14.449Z,9.20
2019-05-07T21:27:45.407Z,9.00
2019-05-07T21:30:17.626Z,8.80
2019-05-07T21:32:48.101Z,8.90
2019-05-07T21:35:18.715Z,8.90
2019-05-07T21:37:49.669Z,8.80
2019-05-07T21:40:22.438Z,8.80
2019-05-07T21:42:52.650Z,8.90
2019-05-07T21:45:23.884Z,8.80
2019-05-07T21:47:56.279Z,8.90
2019-05-07T21:50:28.123Z,8.90
2019-05-07T21:53:04.792Z,8.60
2019-05-07T21:55:58.829Z,8.60
2019-05-07T21:58:33.460Z,8.70
2019-05-07T22:01:07.811Z,8.60
2019-05-07T22:03:40.368Z,8.50
2019-05-07T22:06:12.815Z,8.50
2019-05-07T22:08:43.017Z,8.50
2019-05-07T22:11:13.569Z,8.50
2019-05-07T22:13:44.154Z,8.70
2019-05-07T22:16:14.925Z,8.60
2019-05-07T22:18:45.545Z,8.90
2019-05-07T22:21:16.063Z,8.60
2019-05-07T22:23:47.020Z,8.50
2019-05-07T22:26:22.945Z,8.40
2019-05-07T22:28:49.608Z,8.50
2019-05-07T22:31:38.161Z,8.50
2019-05-07T22:34:27.488Z,8.40
2019-05-07T22:36:58.902Z,8.40
2019-05-07T22:39:32.695Z,8.50
2019-05-07T22:42:05.041Z,8.20
2019-05-07T22:44:35.534Z,8.40
2019-05-07T22:47:22.545Z,8.40
2019-05-07T22:49:54.609Z,8.40
2019-05-07T22:52:24.979Z,8.40
2019-05-07T22:54:55.442Z,8.30
2019-05-07T22:57:43.710Z,8.50
2019-05-07T23:00:33.755Z,8.20
2019-05-07T23:03:04.622Z,8.10
2019-05-07T23:05:35.127Z,8.10
2019-05-07T23:08:06.674Z,7.70
2019-05-07T23:10:37.208Z,7.80
2019-05-07T23:13:07.676Z,8.20
2019-05-07T23:15:38.187Z,7.80
2019-05-07T23:18:08.794Z,7.90
2019-05-07T23:20:39.439Z,8.20
2019-05-07T23:23:13.882Z,8.20
2019-05-07T23:25:43.182Z,8.10
2019-05-07T23:28:13.631Z,8.00
2019-05-07T23:30:44.445Z,8.00
2019-05-07T23:33:15.200Z,7.80
2019-05-07T23:35:45.802Z,7.90
2019-05-07T23:38:16.301Z,7.80
2019-05-07T23:41:08.790Z,7.80
2019-05-07T23:43:39.552Z,7.80
2019-05-07T23:46:12.856Z,8.00
2019-05-07T23:48:43.714Z,7.80
2019-05-07T23:51:14.111Z,7.80
2019-05-07T23:53:45.048Z,7.80
2019-05-07T23:56:16.908Z,7.80
2019-05-07T23:58:47.783Z,7.70
